sensor_id;sensor_type;location;lat;lon;timestamp;pressure;altitude;pressure_sealevel;temperature;humidity
64876;BME280;51369;49.862;9.908;2023-01-28T00:02:01;99024.75;;;3.38;76.96
64876;BME280;51369;49.862;9.908;2023-01-28T00:04:27;99030.97;;;3.39;77.81
64876;BME280;51369;49.862;9.908;2023-01-28T00:06:52;99030.06;;;3.38;77.66
64876;BME280;51369;49.862;9.908;2023-01-28T00:09:17;99030.97;;;3.39;77.02
64876;BME280;51369;49.862;9.908;2023-01-28T00:11:43;99026.50;;;3.39;77.80
64876;BME280;51369;49.862;9.908;2023-01-28T00:14:10;99021.19;;;3.39;77.36
64876;BME280;51369;49.862;9.908;2023-01-28T00:16:36;99024.72;;;3.40;77.24
64876;BME280;51369;49.862;9.908;2023-01-28T00:19:02;99022.06;;;3.40;77.62
64876;BME280;51369;49.862;9.908;2023-01-28T00:21:27;99017.63;;;3.40;77.39
64876;BME280;51369;49.862;9.908;2023-01-28T00:23:54;99010.50;;;3.39;76.64
64876;BME280;51369;49.862;9.908;2023-01-28T00:26:21;99014.06;;;3.40;77.62
64876;BME280;51369;49.862;9.908;2023-01-28T00:28:47;99010.50;;;3.39;77.51
64876;BME280;51369;49.862;9.908;2023-01-28T00:31:16;99007.84;;;3.39;77.18
64876;BME280;51369;49.862;9.908;2023-01-28T00:33:43;99006.06;;;3.40;77.13
64876;BME280;51369;49.862;9.908;2023-01-28T00:36:10;99007.81;;;3.41;76.76
64876;BME280;51369;49.862;9.908;2023-01-28T00:38:35;99010.50;;;3.41;76.59
64876;BME280;51369;49.862;9.908;2023-01-28T00:41:15;99000.72;;;3.40;76.67
64876;BME280;51369;49.862;9.908;2023-01-28T00:43:42;99004.25;;;3.42;77.43
64876;BME280;51369;49.862;9.908;2023-01-28T00:46:10;99004.25;;;3.42;76.21
64876;BME280;51369;49.862;9.908;2023-01-28T00:48:37;99007.81;;;3.41;77.57
64876;BME280;51369;49.862;9.908;2023-01-28T00:51:05;99006.94;;;3.40;77.48
64876;BME280;51369;49.862;9.908;2023-01-28T00:53:31;99006.94;;;3.40;76.50
64876;BME280;51369;49.862;9.908;2023-01-28T00:55:56;99006.94;;;3.40;77.03
64876;BME280;51369;49.862;9.908;2023-01-28T00:58:22;99012.28;;;3.40;77.45
64876;BME280;51369;49.862;9.908;2023-01-28T01:00:51;99012.28;;;3.40;77.20
64876;BME280;51369;49.862;9.908;2023-01-28T01:03:17;99013.16;;;3.39;77.34
64876;BME280;51369;49.862;9.908;2023-01-28T01:05:43;99022.06;;;3.40;77.38
64876;BME280;51369;49.862;9.908;2023-01-28T01:08:09;99012.28;;;3.40;77.13
64876;BME280;51369;49.862;9.908;2023-01-28T01:10:36;99017.63;;;3.39;77.80
64876;BME280;51369;49.862;9.908;2023-01-28T01:13:03;99020.28;;;3.37;77.91
64876;BME280;51369;49.862;9.908;2023-01-28T01:15:29;99037.19;;;3.38;77.56
64876;BME280;51369;49.862;9.908;2023-01-28T01:17:55;99032.75;;;3.37;76.78
64876;BME280;51369;49.862;9.908;2023-01-28T01:20:24;99021.19;;;3.36;76.95
64876;BME280;51369;49.862;9.908;2023-01-28T01:22:50;99022.97;;;3.36;76.82
64876;BME280;51369;49.862;9.908;2023-01-28T01:25:16;99024.75;;;3.37;77.38
64876;BME280;51369;49.862;9.908;2023-01-28T01:27:43;99028.31;;;3.36;76.59
64876;BME280;51369;49.862;9.908;2023-01-28T01:30:11;99031.88;;;3.36;77.24
64876;BME280;51369;49.862;9.908;2023-01-28T01:32:37;99034.53;;;3.36;76.72
64876;BME280;51369;49.862;9.908;2023-01-28T01:35:04;99027.41;;;3.35;77.70
64876;BME280;51369;49.862;9.908;2023-01-28T01:37:34;99031.88;;;3.36;77.92
64876;BME280;51369;49.862;9.908;2023-01-28T01:40:00;99030.97;;;3.36;76.97
64876;BME280;51369;49.862;9.908;2023-01-28T01:42:31;99035.41;;;3.37;78.06
64876;BME280;51369;49.862;9.908;2023-01-28T01:50:08;99039.88;;;3.38;77.50
64876;BME280;51369;49.862;9.908;2023-01-28T01:52:37;99034.50;;;3.41;77.21
64876;BME280;51369;49.862;9.908;2023-01-28T01:55:07;99030.94;;;3.42;77.54
64876;BME280;51369;49.862;9.908;2023-01-28T01:57:35;99036.28;;;3.42;76.40
64876;BME280;51369;49.862;9.908;2023-01-28T02:00:02;99030.94;;;3.42;77.39
64876;BME280;51369;49.862;9.908;2023-01-28T02:02:41;99039.84;;;3.41;76.42
64876;BME280;51369;49.862;9.908;2023-01-28T02:05:08;99036.31;;;3.39;77.17
64876;BME280;51369;49.862;9.908;2023-01-28T02:07:34;99029.19;;;3.41;77.17
64876;BME280;51369;49.862;9.908;2023-01-28T02:10:00;99027.41;;;3.43;76.76
64876;BME280;51369;49.862;9.908;2023-01-28T02:12:30;99038.97;;;3.43;76.64
64876;BME280;51369;49.862;9.908;2023-01-28T02:15:10;99038.06;;;3.41;76.58
64876;BME280;51369;49.862;9.908;2023-01-28T02:17:37;99037.19;;;3.42;76.52
64876;BME280;51369;49.862;9.908;2023-01-28T02:20:07;99038.06;;;3.43;76.52
64876;BME280;51369;49.862;9.908;2023-01-28T02:28:22;99043.41;;;3.46;76.65
64876;BME280;51369;49.862;9.908;2023-01-28T02:33:34;99049.63;;;3.46;77.22
64876;BME280;51369;49.862;9.908;2023-01-28T02:36:37;99039.84;;;3.41;76.50
64876;BME280;51369;49.862;9.908;2023-01-28T02:39:14;99040.75;;;3.43;76.96
64876;BME280;51369;49.862;9.908;2023-01-28T02:41:48;99045.19;;;3.41;77.35
64876;BME280;51369;49.862;9.908;2023-01-28T02:44:14;99044.31;;;3.42;77.41
64876;BME280;51369;49.862;9.908;2023-01-28T02:46:39;99043.41;;;3.40;77.16
64876;BME280;51369;49.862;9.908;2023-01-28T02:49:27;99048.75;;;3.40;76.88
64876;BME280;51369;49.862;9.908;2023-01-28T02:59:54;99056.75;;;3.40;77.18
64876;BME280;51369;49.862;9.908;2023-01-28T03:02:36;99051.44;;;3.38;76.16
64876;BME280;51369;49.862;9.908;2023-01-28T03:05:06;99055.00;;;3.39;76.58
64876;BME280;51369;49.862;9.908;2023-01-28T03:07:37;99048.78;;;3.37;76.58
64876;BME280;51369;49.862;9.908;2023-01-28T03:10:07;99060.34;;;3.36;77.11
64876;BME280;51369;49.862;9.908;2023-01-28T03:12:36;99060.34;;;3.36;77.21
64876;BME280;51369;49.862;9.908;2023-01-28T03:15:36;99063.91;;;3.35;76.85
64876;BME280;51369;49.862;9.908;2023-01-28T03:18:26;99070.13;;;3.35;75.94
64876;BME280;51369;49.862;9.908;2023-01-28T03:21:27;99054.13;;;3.34;75.87
64876;BME280;51369;49.862;9.908;2023-01-28T03:24:22;99063.91;;;3.35;77.42
64876;BME280;51369;49.862;9.908;2023-01-28T03:27:22;99063.91;;;3.35;76.64
64876;BME280;51369;49.862;9.908;2023-01-28T03:30:24;99066.56;;;3.33;75.78
64876;BME280;51369;49.862;9.908;2023-01-28T03:33:18;99070.13;;;3.37;76.90
64876;BME280;51369;49.862;9.908;2023-01-28T03:36:04;99070.13;;;3.37;76.23
64876;BME280;51369;49.862;9.908;2023-01-28T03:38:49;99072.78;;;3.38;76.27
64876;BME280;51369;49.862;9.908;2023-01-28T03:41:21;99073.69;;;3.36;75.65
64876;BME280;51369;49.862;9.908;2023-01-28T03:43:47;99074.56;;;3.36;76.80
64876;BME280;51369;49.862;9.908;2023-01-28T03:46:13;99077.25;;;3.36;76.12
64876;BME280;51369;49.862;9.908;2023-01-28T03:48:38;99079.91;;;3.36;76.93
64876;BME280;51369;49.862;9.908;2023-01-28T03:51:06;99084.38;;;3.34;76.65
64876;BME280;51369;49.862;9.908;2023-01-28T03:53:32;99089.69;;;3.34;75.80
64876;BME280;51369;49.862;9.908;2023-01-28T03:55:57;99090.59;;;3.35;75.72
64876;BME280;51369;49.862;9.908;2023-01-28T03:58:23;99095.03;;;3.36;76.07
64876;BME280;51369;49.862;9.908;2023-01-28T04:01:12;99093.25;;;3.35;76.28
64876;BME280;51369;49.862;9.908;2023-01-28T04:03:37;99096.81;;;3.34;75.68
64876;BME280;51369;49.862;9.908;2023-01-28T04:06:09;99093.25;;;3.32;76.42
64876;BME280;51369;49.862;9.908;2023-01-28T04:08:50;99094.16;;;3.31;76.50
64876;BME280;51369;49.862;9.908;2023-01-28T04:11:30;99090.59;;;3.30;76.15
64876;BME280;51369;49.862;9.908;2023-01-28T04:13:58;99094.16;;;3.29;75.88
64876;BME280;51369;49.862;9.908;2023-01-28T04:16:26;99095.94;;;3.29;75.50
64876;BME280;51369;49.862;9.908;2023-01-28T04:18:52;99103.94;;;3.29;76.32
64876;BME280;51369;49.862;9.908;2023-01-28T04:21:17;99096.84;;;3.28;76.54
64876;BME280;51369;49.862;9.908;2023-01-28T04:23:44;99094.16;;;3.28;76.54
64876;BME280;51369;49.862;9.908;2023-01-28T04:26:12;99096.84;;;3.28;75.67
64876;BME280;51369;49.862;9.908;2023-01-28T04:28:37;99106.63;;;3.27;75.83
64876;BME280;51369;49.862;9.908;2023-01-28T04:31:04;99103.06;;;3.28;76.31
64876;BME280;51369;49.862;9.908;2023-01-28T04:33:49;99106.63;;;3.27;76.00
64876;BME280;51369;49.862;9.908;2023-01-28T04:36:35;99114.63;;;3.29;75.76
64876;BME280;51369;49.862;9.908;2023-01-28T04:39:19;99104.84;;;3.28;76.46
64876;BME280;51369;49.862;9.908;2023-01-28T04:41:58;99111.94;;;3.27;76.51
64876;BME280;51369;49.862;9.908;2023-01-28T04:44:40;99111.94;;;3.27;75.98
64876;BME280;51369;49.862;9.908;2023-01-28T04:47:16;99113.72;;;3.28;75.50
64876;BME280;51369;49.862;9.908;2023-01-28T04:49:53;99120.84;;;3.28;75.31
64876;BME280;51369;49.862;9.908;2023-01-28T04:52:30;99118.19;;;3.28;76.09
64876;BME280;51369;49.862;9.908;2023-01-28T04:55:04;99114.63;;;3.27;76.28
64876;BME280;51369;49.862;9.908;2023-01-28T04:57:30;99119.97;;;3.27;75.83
64876;BME280;51369;49.862;9.908;2023-01-28T04:59:55;99116.41;;;3.26;75.62
64876;BME280;51369;49.862;9.908;2023-01-28T05:02:21;99118.19;;;3.28;75.64
64876;BME280;51369;49.862;9.908;2023-01-28T05:04:47;99122.63;;;3.27;75.40
64876;BME280;51369;49.862;9.908;2023-01-28T05:07:25;99118.19;;;3.26;75.15
64876;BME280;51369;49.862;9.908;2023-01-28T05:09:51;99120.84;;;3.26;75.44
64876;BME280;51369;49.862;9.908;2023-01-28T05:12:16;99123.53;;;3.26;76.25
64876;BME280;51369;49.862;9.908;2023-01-28T05:14:43;99111.97;;;3.25;76.51
64876;BME280;51369;49.862;9.908;2023-01-28T05:17:12;99114.63;;;3.25;76.11
64876;BME280;51369;49.862;9.908;2023-01-28T05:19:38;99115.53;;;3.24;76.65
64876;BME280;51369;49.862;9.908;2023-01-28T05:22:09;99116.41;;;3.23;76.16
64876;BME280;51369;49.862;9.908;2023-01-28T05:24:41;99117.31;;;3.24;76.11
64876;BME280;51369;49.862;9.908;2023-01-28T05:27:06;99123.53;;;3.23;75.53
64876;BME280;51369;49.862;9.908;2023-01-28T05:29:32;99128.88;;;3.24;75.02
64876;BME280;51369;49.862;9.908;2023-01-28T05:31:58;99127.09;;;3.23;76.02
64876;BME280;51369;49.862;9.908;2023-01-28T05:34:23;99127.97;;;3.22;76.55
64876;BME280;51369;49.862;9.908;2023-01-28T05:36:49;99127.97;;;3.22;75.94
64876;BME280;51369;49.862;9.908;2023-01-28T05:39:29;99130.66;;;3.22;75.61
64876;BME280;51369;49.862;9.908;2023-01-28T05:41:55;99127.09;;;3.22;75.54
64876;BME280;51369;49.862;9.908;2023-01-28T05:44:21;99120.84;;;3.21;76.39
64876;BME280;51369;49.862;9.908;2023-01-28T05:47:02;99132.44;;;3.20;75.18
64876;BME280;51369;49.862;9.908;2023-01-28T05:50:04;99133.31;;;3.19;75.65
64876;BME280;51369;49.862;9.908;2023-01-28T05:52:42;99141.31;;;3.19;75.00
64876;BME280;51369;49.862;9.908;2023-01-28T05:55:15;99144.00;;;3.19;75.93
64876;BME280;51369;49.862;9.908;2023-01-28T05:57:41;99144.88;;;3.18;75.17
64876;BME280;51369;49.862;9.908;2023-01-28T06:00:09;99141.31;;;3.16;75.64
64876;BME280;51369;49.862;9.908;2023-01-28T06:02:40;99134.22;;;3.17;75.81
64876;BME280;51369;49.862;9.908;2023-01-28T06:05:06;99146.66;;;3.15;75.98
64876;BME280;51369;49.862;9.908;2023-01-28T06:07:32;99147.56;;;3.14;75.37
64876;BME280;51369;49.862;9.908;2023-01-28T06:09:58;99152.00;;;3.13;75.80
64876;BME280;51369;49.862;9.908;2023-01-28T06:12:23;99155.56;;;3.12;75.63
64876;BME280;51369;49.862;9.908;2023-01-28T06:15:11;99160.91;;;3.12;75.74
64876;BME280;51369;49.862;9.908;2023-01-28T06:17:55;99164.44;;;3.11;75.63
64876;BME280;51369;49.862;9.908;2023-01-28T06:20:26;99169.78;;;3.11;75.31
64876;BME280;51369;49.862;9.908;2023-01-28T06:22:52;99168.91;;;3.09;75.91
64876;BME280;51369;49.862;9.908;2023-01-28T06:25:18;99173.34;;;3.10;76.36
64876;BME280;51369;49.862;9.908;2023-01-28T06:27:45;99172.47;;;3.08;75.65
64876;BME280;51369;49.862;9.908;2023-01-28T06:30:11;99168.91;;;3.08;75.77
64876;BME280;51369;49.862;9.908;2023-01-28T06:32:37;99178.69;;;3.09;76.08
64876;BME280;51369;49.862;9.908;2023-01-28T06:35:03;99185.78;;;3.07;76.22
64876;BME280;51369;49.862;9.908;2023-01-28T06:37:28;99185.78;;;3.07;76.51
64876;BME280;51369;49.862;9.908;2023-01-28T06:39:54;99192.03;;;3.06;75.80
64876;BME280;51369;49.862;9.908;2023-01-28T06:42:19;99178.69;;;3.04;75.68
64876;BME280;51369;49.862;9.908;2023-01-28T06:44:45;99194.69;;;3.04;75.33
64876;BME280;51369;49.862;9.908;2023-01-28T06:47:10;99198.25;;;3.05;75.48
64876;BME280;51369;49.862;9.908;2023-01-28T06:49:36;99201.81;;;3.04;75.86
64876;BME280;51369;49.862;9.908;2023-01-28T06:52:02;99198.25;;;3.02;75.98
64876;BME280;51369;49.862;9.908;2023-01-28T06:54:28;99205.34;;;3.03;76.28
64876;BME280;51369;49.862;9.908;2023-01-28T06:56:54;99215.13;;;3.01;75.86
64876;BME280;51369;49.862;9.908;2023-01-28T06:59:19;99206.25;;;3.00;75.71
64876;BME280;51369;49.862;9.908;2023-01-28T07:01:45;99215.13;;;3.01;75.58
64876;BME280;51369;49.862;9.908;2023-01-28T07:04:11;99217.81;;;2.99;75.09
64876;BME280;51369;49.862;9.908;2023-01-28T07:06:36;99221.38;;;3.00;75.39
64876;BME280;51369;49.862;9.908;2023-01-28T07:09:01;99219.59;;;3.00;75.96
64876;BME280;51369;49.862;9.908;2023-01-28T07:11:27;99216.03;;;2.97;75.29
64876;BME280;51369;49.862;9.908;2023-01-28T07:13:52;99206.25;;;2.99;74.98
64876;BME280;51369;49.862;9.908;2023-01-28T07:16:17;99224.03;;;2.98;75.39
64876;BME280;51369;49.862;9.908;2023-01-28T07:18:43;99231.13;;;2.98;74.93
64876;BME280;51369;49.862;9.908;2023-01-28T07:21:08;99229.38;;;2.98;75.39
64876;BME280;51369;49.862;9.908;2023-01-28T07:23:33;99226.69;;;2.98;74.97
64876;BME280;51369;49.862;9.908;2023-01-28T07:26:00;99230.25;;;2.99;75.38
64876;BME280;51369;49.862;9.908;2023-01-28T07:28:26;99221.34;;;2.98;74.75
64876;BME280;51369;49.862;9.908;2023-01-28T07:30:51;99224.03;;;3.00;75.08
64876;BME280;51369;49.862;9.908;2023-01-28T07:33:17;99237.38;;;3.01;75.17
64876;BME280;51369;49.862;9.908;2023-01-28T07:35:43;99229.38;;;3.00;74.81
64876;BME280;51369;49.862;9.908;2023-01-28T07:38:09;99233.81;;;3.01;75.63
64876;BME280;51369;49.862;9.908;2023-01-28T07:40:34;99236.47;;;3.02;74.90
64876;BME280;51369;49.862;9.908;2023-01-28T07:43:00;99234.69;;;3.04;74.97
64876;BME280;51369;49.862;9.908;2023-01-28T07:45:26;99226.69;;;3.03;74.19
64876;BME280;51369;49.862;9.908;2023-01-28T07:47:59;99240.03;;;3.04;74.88
64876;BME280;51369;49.862;9.908;2023-01-28T07:50:27;99230.25;;;3.06;74.32
64876;BME280;51369;49.862;9.908;2023-01-28T07:52:54;99240.03;;;3.07;75.35
64876;BME280;51369;49.862;9.908;2023-01-28T07:55:20;99239.16;;;3.08;73.80
64876;BME280;51369;49.862;9.908;2023-01-28T07:57:58;99246.28;;;3.09;74.63
64876;BME280;51369;49.862;9.908;2023-01-28T08:00:27;99233.81;;;3.11;74.99
64876;BME280;51369;49.862;9.908;2023-01-28T08:03:01;99244.50;;;3.11;74.07
64876;BME280;51369;49.862;9.908;2023-01-28T08:05:35;99243.59;;;3.12;74.81
64876;BME280;51369;49.862;9.908;2023-01-28T08:08:03;99246.28;;;3.14;74.08
64876;BME280;51369;49.862;9.908;2023-01-28T08:10:29;99248.94;;;3.15;73.92
64876;BME280;51369;49.862;9.908;2023-01-28T08:12:56;99247.16;;;3.16;74.48
64876;BME280;51369;49.862;9.908;2023-01-28T08:15:25;99250.72;;;3.16;73.17
64876;BME280;51369;49.862;9.908;2023-01-28T08:17:53;99250.72;;;3.18;73.54
64876;BME280;51369;49.862;9.908;2023-01-28T08:20:18;99248.94;;;3.20;73.16
64876;BME280;51369;49.862;9.908;2023-01-28T08:22:44;99256.06;;;3.21;74.20
64876;BME280;51369;49.862;9.908;2023-01-28T08:25:09;99257.84;;;3.23;73.17
64876;BME280;51369;49.862;9.908;2023-01-28T08:27:35;99258.72;;;3.24;73.20
64876;BME280;51369;49.862;9.908;2023-01-28T08:30:00;99265.84;;;3.26;73.75
64876;BME280;51369;49.862;9.908;2023-01-28T08:32:27;99261.41;;;3.27;73.33
64876;BME280;51369;49.862;9.908;2023-01-28T08:34:53;99257.84;;;3.28;73.97
64876;BME280;51369;49.862;9.908;2023-01-28T08:37:18;99267.63;;;3.28;73.64
64876;BME280;51369;49.862;9.908;2023-01-28T08:39:43;99269.41;;;3.27;73.72
64876;BME280;51369;49.862;9.908;2023-01-28T08:42:09;99264.97;;;3.28;74.16
64876;BME280;51369;49.862;9.908;2023-01-28T08:44:34;99272.97;;;3.28;73.45
64876;BME280;51369;49.862;9.908;2023-01-28T08:47:00;99270.31;;;3.28;73.29
64876;BME280;51369;49.862;9.908;2023-01-28T08:49:25;99273.88;;;3.26;74.00
64876;BME280;51369;49.862;9.908;2023-01-28T08:51:51;99276.53;;;3.25;72.37
64876;BME280;51369;49.862;9.908;2023-01-28T08:54:16;99281.88;;;3.25;73.34
64876;BME280;51369;49.862;9.908;2023-01-28T08:56:41;99282.75;;;3.24;73.58
64876;BME280;51369;49.862;9.908;2023-01-28T08:59:10;99286.31;;;3.23;73.30
64876;BME280;51369;49.862;9.908;2023-01-28T09:01:36;99278.31;;;3.21;73.02
64876;BME280;51369;49.862;9.908;2023-01-28T09:04:01;99285.44;;;3.22;73.09
64876;BME280;51369;49.862;9.908;2023-01-28T09:06:26;99276.53;;;3.20;72.94
64876;BME280;51369;49.862;9.908;2023-01-28T09:08:56;99280.97;;;3.21;73.59
64876;BME280;51369;49.862;9.908;2023-01-28T09:11:21;99272.06;;;3.21;72.63
64876;BME280;51369;49.862;9.908;2023-01-28T09:13:46;99280.97;;;3.24;73.28
64876;BME280;51369;49.862;9.908;2023-01-28T09:16:12;99273.88;;;3.26;73.42
64876;BME280;51369;49.862;9.908;2023-01-28T09:18:38;99283.66;;;3.28;73.50
64876;BME280;51369;49.862;9.908;2023-01-28T09:21:05;99284.53;;;3.30;72.48
64876;BME280;51369;49.862;9.908;2023-01-28T09:23:33;99288.09;;;3.30;72.95
64876;BME280;51369;49.862;9.908;2023-01-28T09:26:00;99296.09;;;3.32;72.56
64876;BME280;51369;49.862;9.908;2023-01-28T09:28:25;99292.56;;;3.33;73.35
64876;BME280;51369;49.862;9.908;2023-01-28T09:30:51;99290.78;;;3.33;73.00
64876;BME280;51369;49.862;9.908;2023-01-28T09:33:16;99290.78;;;3.35;72.59
64876;BME280;51369;49.862;9.908;2023-01-28T09:35:42;99299.66;;;3.35;72.07
64876;BME280;51369;49.862;9.908;2023-01-28T09:38:07;99304.13;;;3.38;72.80
64876;BME280;51369;49.862;9.908;2023-01-28T09:40:39;99297.91;;;3.39;73.06
64876;BME280;51369;49.862;9.908;2023-01-28T09:45:51;99311.25;;;3.45;71.92
64876;BME280;51369;49.862;9.908;2023-01-28T09:48:22;99309.44;;;3.47;72.24
64876;BME280;51369;49.862;9.908;2023-01-28T09:50:52;99308.53;;;3.49;72.70
64876;BME280;51369;49.862;9.908;2023-01-28T09:53:29;99309.44;;;3.51;72.79
64876;BME280;51369;49.862;9.908;2023-01-28T09:56:00;99314.78;;;3.53;71.58
64876;BME280;51369;49.862;9.908;2023-01-28T09:58:26;99321.00;;;3.55;72.08
64876;BME280;51369;49.862;9.908;2023-01-28T10:11:57;99327.25;;;3.62;70.85
64876;BME280;51369;49.862;9.908;2023-01-28T10:14:44;99322.78;;;3.65;70.94
64876;BME280;51369;49.862;9.908;2023-01-28T10:17:27;99327.25;;;3.66;71.96
64876;BME280;51369;49.862;9.908;2023-01-28T10:19:59;99326.34;;;3.67;70.61
64876;BME280;51369;49.862;9.908;2023-01-28T10:22:43;99325.47;;;3.68;70.65
64876;BME280;51369;49.862;9.908;2023-01-28T10:25:19;99317.44;;;3.71;70.86
64876;BME280;51369;49.862;9.908;2023-01-28T10:27:47;99326.34;;;3.73;71.44
64876;BME280;51369;49.862;9.908;2023-01-28T10:35:19;99323.69;;;3.73;71.67
64876;BME280;51369;49.862;9.908;2023-01-28T10:37:45;99321.00;;;3.73;71.22
64876;BME280;51369;49.862;9.908;2023-01-28T10:40:17;99331.69;;;3.70;70.52
64876;BME280;51369;49.862;9.908;2023-01-28T10:42:43;99332.59;;;3.71;71.27
64876;BME280;51369;49.862;9.908;2023-01-28T10:45:50;99329.91;;;3.69;70.67
64876;BME280;51369;49.862;9.908;2023-01-28T10:48:37;99327.25;;;3.69;70.85
64876;BME280;51369;49.862;9.908;2023-01-28T10:51:07;99332.59;;;3.71;70.64
64876;BME280;51369;49.862;9.908;2023-01-28T10:56:04;99332.59;;;3.69;70.67
64876;BME280;51369;49.862;9.908;2023-01-28T10:58:33;99336.13;;;3.70;70.54
64876;BME280;51369;49.862;9.908;2023-01-28T11:01:00;99340.59;;;3.69;69.89
64876;BME280;51369;49.862;9.908;2023-01-28T11:03:27;99344.16;;;3.70;69.43
64876;BME280;51369;49.862;9.908;2023-01-28T11:05:57;99339.69;;;3.69;69.63
64876;BME280;51369;49.862;9.908;2023-01-28T11:08:25;99347.72;;;3.69;69.53
64876;BME280;51369;49.862;9.908;2023-01-28T11:10:52;99342.38;;;3.67;69.29
64876;BME280;51369;49.862;9.908;2023-01-28T11:13:25;99348.59;;;3.65;70.68
64876;BME280;51369;49.862;9.908;2023-01-28T11:16:06;99344.16;;;3.62;69.54
64876;BME280;51369;49.862;9.908;2023-01-28T11:18:45;99339.69;;;3.63;69.83
64876;BME280;51369;49.862;9.908;2023-01-28T11:21:20;99355.72;;;3.59;69.89
64876;BME280;51369;49.862;9.908;2023-01-28T11:23:59;99348.59;;;3.58;70.12
64876;BME280;51369;49.862;9.908;2023-01-28T11:26:31;99345.94;;;3.57;69.75
64876;BME280;51369;49.862;9.908;2023-01-28T11:28:58;99354.84;;;3.57;70.24
64876;BME280;51369;49.862;9.908;2023-01-28T11:31:25;99357.50;;;3.56;69.96
64876;BME280;51369;49.862;9.908;2023-01-28T11:33:58;99364.63;;;3.52;70.41
64876;BME280;51369;49.862;9.908;2023-01-28T11:36:28;99363.72;;;3.52;69.75
64876;BME280;51369;49.862;9.908;2023-01-28T11:38:57;99360.16;;;3.48;70.53
64876;BME280;51369;49.862;9.908;2023-01-28T11:41:35;99360.19;;;3.45;71.17
64876;BME280;51369;49.862;9.908;2023-01-28T11:44:24;99354.84;;;3.41;70.75
64876;BME280;51369;49.862;9.908;2023-01-28T11:58:20;99334.38;;;3.44;70.26
64876;BME280;51369;49.862;9.908;2023-01-28T12:03:25;99331.69;;;3.47;69.97
64876;BME280;51369;49.862;9.908;2023-01-28T12:06:10;99329.00;;;3.49;69.23
64876;BME280;51369;49.862;9.908;2023-01-28T12:08:50;99334.34;;;3.50;70.24
64876;BME280;51369;49.862;9.908;2023-01-28T12:20:33;99317.44;;;3.47;68.89
64876;BME280;51369;49.862;9.908;2023-01-28T12:31:25;99315.69;;;3.43;69.49
64876;BME280;51369;49.862;9.908;2023-01-28T12:36:57;99323.69;;;3.38;68.88
64876;BME280;51369;49.862;9.908;2023-01-28T12:39:47;99320.13;;;3.38;68.62
64876;BME280;51369;49.862;9.908;2023-01-28T12:42:26;99323.69;;;3.37;69.26
64876;BME280;51369;49.862;9.908;2023-01-28T12:45:01;99319.25;;;3.36;68.67
64876;BME280;51369;49.862;9.908;2023-01-28T12:47:39;99321.91;;;3.33;68.84
64876;BME280;51369;49.862;9.908;2023-01-28T12:50:21;99316.56;;;3.31;68.41
64876;BME280;51369;49.862;9.908;2023-01-28T12:52:54;99305.88;;;3.31;68.14
64876;BME280;51369;49.862;9.908;2023-01-28T12:55:39;99322.78;;;3.29;67.67
64876;BME280;51369;49.862;9.908;2023-01-28T12:58:12;99320.13;;;3.27;68.33
64876;BME280;51369;49.862;9.908;2023-01-28T13:00:45;99315.69;;;3.28;68.92
64876;BME280;51369;49.862;9.908;2023-01-28T13:06:43;99321.91;;;3.22;67.91
64876;BME280;51369;49.862;9.908;2023-01-28T13:09:23;99317.44;;;3.21;68.47
64876;BME280;51369;49.862;9.908;2023-01-28T13:11:52;99313.88;;;3.19;66.71
64876;BME280;51369;49.862;9.908;2023-01-28T13:14:28;99326.34;;;3.17;67.25
64876;BME280;51369;49.862;9.908;2023-01-28T13:16:55;99321.00;;;3.17;67.27
64876;BME280;51369;49.862;9.908;2023-01-28T13:19:23;99327.22;;;3.17;68.14
64876;BME280;51369;49.862;9.908;2023-01-28T13:21:49;99327.22;;;3.17;68.14
64876;BME280;51369;49.862;9.908;2023-01-28T13:26:55;99328.09;;;3.12;67.14
64876;BME280;51369;49.862;9.908;2023-01-28T13:29:29;99318.31;;;3.09;66.83
64876;BME280;51369;49.862;9.908;2023-01-28T13:31:57;99320.97;;;3.06;66.58
64876;BME280;51369;49.862;9.908;2023-01-28T13:34:30;99317.41;;;3.07;67.62
64876;BME280;51369;49.862;9.908;2023-01-28T13:37:00;99328.97;;;3.08;66.85
64876;BME280;51369;49.862;9.908;2023-01-28T13:39:28;99327.19;;;3.08;66.99
64876;BME280;51369;49.862;9.908;2023-01-28T13:42:07;99326.31;;;3.09;66.99
64876;BME280;51369;49.862;9.908;2023-01-28T13:44:35;99332.53;;;3.11;66.64
64876;BME280;51369;49.862;9.908;2023-01-28T13:49:43;99344.09;;;3.10;67.53
64876;BME280;51369;49.862;9.908;2023-01-28T13:54:43;99346.75;;;3.04;66.69
64876;BME280;51369;49.862;9.908;2023-01-28T14:00:21;99360.97;;;3.00;67.28
64876;BME280;51369;49.862;9.908;2023-01-28T14:06:01;99372.53;;;2.96;67.54
64876;BME280;51369;49.862;9.908;2023-01-28T14:11:15;99378.75;;;2.95;65.60
64876;BME280;51369;49.862;9.908;2023-01-28T14:16:51;99376.97;;;2.99;65.20
64876;BME280;51369;49.862;9.908;2023-01-28T14:19:27;99370.75;;;2.98;64.45
64876;BME280;51369;49.862;9.908;2023-01-28T14:21:54;99378.75;;;2.97;65.17
64876;BME280;51369;49.862;9.908;2023-01-28T14:24:20;99379.63;;;2.97;65.80
64876;BME280;51369;49.862;9.908;2023-01-28T14:26:54;99385.84;;;2.93;65.40
64876;BME280;51369;49.862;9.908;2023-01-28T14:29:42;99391.19;;;2.91;64.94
64876;BME280;51369;49.862;9.908;2023-01-28T14:32:14;99385.84;;;2.91;65.90
64876;BME280;51369;49.862;9.908;2023-01-28T14:34:42;99389.38;;;2.89;64.49
64876;BME280;51369;49.862;9.908;2023-01-28T14:37:11;99388.50;;;2.87;65.34
64876;BME280;51369;49.862;9.908;2023-01-28T14:39:50;99396.47;;;2.85;65.89
64876;BME280;51369;49.862;9.908;2023-01-28T14:42:22;99397.38;;;2.83;64.62
64876;BME280;51369;49.862;9.908;2023-01-28T14:48:24;99396.44;;;2.78;64.44
64876;BME280;51369;49.862;9.908;2023-01-28T14:57:14;99398.19;;;2.70;64.63
64876;BME280;51369;49.862;9.908;2023-01-28T14:59:47;99395.50;;;2.68;64.91
64876;BME280;51369;49.862;9.908;2023-01-28T15:02:22;99403.50;;;2.67;64.74
64876;BME280;51369;49.862;9.908;2023-01-28T15:04:48;99402.59;;;2.65;64.53
64876;BME280;51369;49.862;9.908;2023-01-28T15:07:20;99409.69;;;2.63;65.57
64876;BME280;51369;49.862;9.908;2023-01-28T15:09:46;99399.91;;;2.60;65.33
64876;BME280;51369;49.862;9.908;2023-01-28T15:12:13;99405.22;;;2.58;64.62
64876;BME280;51369;49.862;9.908;2023-01-28T15:14:40;99399.88;;;2.55;64.83
64876;BME280;51369;49.862;9.908;2023-01-28T15:17:17;99410.53;;;2.54;64.04
64876;BME280;51369;49.862;9.908;2023-01-28T15:19:46;99398.09;;;2.53;64.71